Erkan-2 — TC6588 — position and weather

sailwx.info

Track history (hours):
 
Tides and Currents Weather Stations Pressure Air Temp Water Temp Dewpoint Dewpoint Depression Visibility Wind Speed Wind Dir Waves Ship Positions

Erkan-2

Last reported at 2017-Nov-19 04:28 UTC. Time now 2017-Nov-19 05:00 UTC.
Position N 36°53' E 030°42'.

Length 19 m.

Type: Passenger vessel. MMSI: 271041084.

Date/timePositionNaut miles runAvg speedWind from/ knotsBaromVisibWave heightAir tempDewpointWater temp
2017-Nov-19 04:28N 36°53' E 030°42'0 0.0
2017-Nov-19 03:55N 36°53' E 030°42'0 0.0
2017-Nov-19 03:25N 36°53' E 030°42'0 0.0
2017-Nov-19 02:37N 36°53' E 030°42'0 0.0
2017-Nov-19 02:19N 36°53' E 030°42'0 0.0
2017-Nov-19 01:49N 36°53' E 030°42'0 0.0
2017-Nov-19 01:25N 36°53' E 030°42'0 0.0
2017-Nov-19 00:43N 36°53' E 030°42'0 0.0
2017-Nov-19 00:25N 36°53' E 030°42'0 0.0
2017-Nov-18 23:55N 36°53' E 030°42'0 0.0
2017-Nov-18 23:25N 36°53' E 030°42'0 0.0
2017-Nov-18 22:43N 36°53' E 030°42'0 0.0
2017-Nov-18 22:25N 36°53' E 030°42'0 0.0
2017-Nov-18 21:52N 36°53' E 030°42'0 0.0
2017-Nov-18 21:19N 36°53' E 030°42'0 0.0
2017-Nov-18 19:31N 36°53' E 030°42'0 0.0
2017-Nov-18 19:28N 36°53' E 030°42'0 0.0
2017-Nov-18 16:13N 36°53' E 030°42'0 0.0
2017-Nov-18 15:58N 36°53' E 030°42'0 0.0
2017-Nov-18 15:28N 36°53' E 030°42'0 0.0
2017-Nov-18 14:58N 36°53' E 030°42'0 0.3
2017-Nov-18 14:30N 36°53' E 030°42'3 6.3
2017-Nov-18 14:00N 36°51' E 030°45'1 1.3
2017-Nov-18 13:29N 36°51' E 030°46'3 5.6
2017-Nov-18 13:00N 36°52' E 030°43'1 1.7
2017-Nov-18 12:21N 36°53' E 030°42'0 0.0
2017-Nov-18 11:57N 36°53' E 030°42'0 0.0
2017-Nov-18 11:24N 36°53' E 030°42'1 2.3
2017-Nov-18 11:00N 36°52' E 030°42'1 1.9
2017-Nov-18 10:30N 36°53' E 030°42'0 0.0
2017-Nov-18 10:00N 36°53' E 030°42'0 0.0
2017-Nov-18 09:24N 36°53' E 030°42'0 0.0
2017-Nov-18 09:00N 36°53' E 030°42'0 0.0
2017-Nov-18 08:30N 36°53' E 030°42'0 0.0
2017-Nov-18 08:00N 36°53' E 030°42'0 0.0
2017-Nov-18 07:30N 36°53' E 030°42'0 0.0
2017-Nov-18 07:00N 36°53' E 030°42'0 0.0
2017-Nov-18 06:30N 36°53' E 030°42'0 0.0
2017-Nov-18 06:00N 36°53' E 030°42'0 0.0
2017-Nov-18 05:30N 36°53' E 030°42'0 0.0
2017-Nov-18 05:00N 36°53' E 030°42'0 0.0
2017-Nov-18 04:30N 36°53' E 030°42'0 0.0
2017-Nov-18 04:00N 36°53' E 030°42'0 0.0
2017-Nov-18 03:30N 36°53' E 030°42'0 0.0
2017-Nov-18 03:00N 36°53' E 030°42'0 0.0
2017-Nov-18 02:30N 36°53' E 030°42'0 0.0
2017-Nov-18 02:00N 36°53' E 030°42'0 0.0
2017-Nov-18 01:30N 36°53' E 030°42'0 0.0
2017-Nov-18 01:00N 36°53' E 030°42'0 0.0
2017-Nov-18 00:30N 36°53' E 030°42'0 0.0
2017-Nov-18 00:00N 36°53' E 030°42'0 0.0
2017-Nov-17 23:30N 36°53' E 030°42'0 0.0
2017-Nov-17 23:01N 36°53' E 030°42'0 0.0
2017-Nov-17 22:27N 36°53' E 030°42'0 0.0
2017-Nov-17 22:00N 36°53' E 030°42'0 0.0
2017-Nov-17 21:31N 36°53' E 030°42'0 0.0
2017-Nov-17 21:01N 36°53' E 030°42'0 0.0
2017-Nov-17 20:30N 36°53' E 030°42'0 0.0
2017-Nov-17 20:00N 36°53' E 030°42'0 0.0
2017-Nov-17 19:25N 36°53' E 030°42'0 0.0
2017-Nov-17 18:55N 36°53' E 030°42'0 0.0
2017-Nov-17 18:31N 36°53' E 030°42'0 0.0
2017-Nov-17 17:58N 36°53' E 030°42'0 0.0
2017-Nov-17 17:28N 36°53' E 030°42'0 0.0
2017-Nov-17 16:58N 36°53' E 030°42'0 0.0
2017-Nov-17 16:25N 36°53' E 030°42'0 0.0
2017-Nov-17 15:58N 36°53' E 030°42'0 0.0
2017-Nov-17 15:25N 36°53' E 030°42'0 0.0
2017-Nov-17 14:58N 36°53' E 030°42'0 0.0
2017-Nov-17 14:28N 36°53' E 030°42'0 0.0
2017-Nov-17 13:30N 36°53' E 030°42'3 5.7
2017-Nov-17 13:00N 36°51' E 030°45'1 2.4
2017-Nov-17 12:26N 36°51' E 030°46'2 5.8
2017-Nov-17 12:00N 36°52' E 030°43'2 3.1
2017-Nov-17 11:28N 36°53' E 030°42'0 0.0
2017-Nov-17 10:58N 36°53' E 030°42'0 0.0
2017-Nov-17 10:28N 36°53' E 030°42'0 0.0
2017-Nov-17 09:58N 36°53' E 030°42'0 0.0
2017-Nov-17 09:28N 36°53' E 030°42'0 0.0
2017-Nov-17 08:52N 36°53' E 030°42'0 0.0
2017-Nov-17 08:22N 36°53' E 030°42'0 0.0
2017-Nov-17 07:58N 36°53' E 030°42'0 0.0
2017-Nov-17 07:25N 36°53' E 030°42'0 0.0
2017-Nov-17 06:58N 36°53' E 030°42'0 0.0
2017-Nov-17 06:25N 36°53' E 030°42'0 0.0
2017-Nov-17 05:58N 36°53' E 030°42'0 0.0
2017-Nov-17 05:28N 36°53' E 030°42'0 0.0
2017-Nov-17 04:58N 36°53' E 030°42'0 0.0
2017-Nov-17 04:28N 36°53' E 030°42'0 0.0
2017-Nov-17 03:58N 36°53' E 030°42'0 0.0
2017-Nov-17 03:28N 36°53' E 030°42'0 0.0
2017-Nov-17 02:58N 36°53' E 030°42'0 0.0
2017-Nov-17 02:28N 36°53' E 030°42'0 0.0
2017-Nov-17 01:55N 36°53' E 030°42'0 0.0
2017-Nov-17 01:28N 36°53' E 030°42'0 0.0
2017-Nov-17 00:58N 36°53' E 030°42'0 0.0
2017-Nov-17 00:28N 36°53' E 030°42'0 0.0
2017-Nov-16 23:55N 36°53' E 030°42'0 0.0
2017-Nov-16 23:28N 36°53' E 030°42'0 0.0
2017-Nov-16 22:55N 36°53' E 030°42'0 0.0
2017-Nov-16 22:28N 36°53' E 030°42'0 0.0
2017-Nov-16 21:58N 36°53' E 030°42'0 0.0
2017-Nov-16 21:28N 36°53' E 030°42'0 0.0
2017-Nov-16 20:58N 36°53' E 030°42'0 0.0
2017-Nov-16 20:28N 36°53' E 030°42'0 0.0
2017-Nov-16 19:58N 36°53' E 030°42'0 0.0
2017-Nov-16 19:25N 36°53' E 030°42'0 0.0
2017-Nov-16 18:58N 36°53' E 030°42'0 0.0
2017-Nov-16 18:25N 36°53' E 030°42'0 0.0
2017-Nov-16 17:58N 36°53' E 030°42'0 0.0
2017-Nov-16 17:25N 36°53' E 030°42'0 0.0
2017-Nov-16 16:58N 36°53' E 030°42'0 0.0
2017-Nov-16 16:25N 36°53' E 030°42'0 0.0
2017-Nov-16 15:58N 36°53' E 030°42'1 1.9
2017-Nov-16 15:26N 36°52' E 030°43'0 0.1
2017-Nov-16 14:59N 36°52' E 030°43'0 0.1
2017-Nov-16 14:29N 36°52' E 030°43'0 0.1
2017-Nov-16 13:59N 36°52' E 030°43'1 1.9
2017-Nov-16 13:29N 36°53' E 030°42'3 6.3
2017-Nov-16 13:00N 36°51' E 030°45'1 1.2
2017-Nov-16 12:26N 36°51' E 030°46'3 6.0
2017-Nov-16 12:00N 36°52' E 030°43'1 2.2
2017-Nov-16 11:28N 36°53' E 030°42'0 0.0
2017-Nov-16 10:55N 36°53' E 030°42'0 0.0
2017-Nov-16 10:28N 36°53' E 030°42'0 0.0
2017-Nov-16 09:58N 36°53' E 030°42'0 0.0
2017-Nov-16 09:25N 36°53' E 030°42'0 0.0
2017-Nov-16 08:25N 36°53' E 030°42'0 0.0
2017-Nov-16 07:58N 36°53' E 030°42'0 0.0
2017-Nov-16 07:28N 36°53' E 030°42'0 0.0
2017-Nov-16 06:58N 36°53' E 030°42'0 0.0
2017-Nov-16 06:28N 36°53' E 030°42'0 0.0
2017-Nov-16 05:55N 36°53' E 030°42'0 0.0
2017-Nov-16 04:34N 36°53' E 030°42'0 0.0
2017-Nov-16 04:25N 36°53' E 030°42'0 0.0
2017-Nov-16 03:55N 36°53' E 030°42'0 0.0
2017-Nov-16 03:28N 36°53' E 030°42'0 0.0
2017-Nov-16 02:55N 36°53' E 030°42'0 0.0
2017-Nov-16 02:25N 36°53' E 030°42'0 0.0
2017-Nov-16 01:55N 36°53' E 030°42'0 0.0
2017-Nov-16 01:19N 36°53' E 030°42'0 0.0
2017-Nov-16 00:55N 36°53' E 030°42'0 0.0
2017-Nov-16 00:25N 36°53' E 030°42'0 0.0
2017-Nov-15 23:55N 36°53' E 030°42'0 0.0
2017-Nov-15 23:19N 36°53' E 030°42'0 0.0
2017-Nov-15 22:55N 36°53' E 030°42'0 0.0
2017-Nov-15 22:22N 36°53' E 030°42'0 0.0
2017-Nov-15 21:43N 36°53' E 030°42'0 0.0
2017-Nov-15 21:25N 36°53' E 030°42'0 0.0
2017-Nov-15 20:49N 36°53' E 030°42'0 0.0
2017-Nov-15 20:25N 36°53' E 030°42'0 0.0
2017-Nov-15 17:49N 36°53' E 030°42'0 0.0
2017-Nov-15 17:25N 36°53' E 030°42'0 0.0
2017-Nov-15 16:55N 36°53' E 030°42'0 0.0
2017-Nov-15 16:25N 36°53' E 030°42'0 0.0
2017-Nov-15 15:58N 36°53' E 030°42'0 0.0
2017-Nov-15 15:13N 36°53' E 030°42'0 0.0
2017-Nov-15 14:58N 36°53' E 030°42'0 0.0
2017-Nov-15 14:25N 36°53' E 030°42'0 0.0
2017-Nov-15 13:58N 36°53' E 030°42'0 0.0
2017-Nov-15 13:25N 36°53' E 030°42'0 0.0
2017-Nov-15 12:55N 36°53' E 030°42'0 0.0
2017-Nov-15 12:25N 36°53' E 030°42'0 0.0
2017-Nov-15 11:58N 36°53' E 030°42'0 0.0
2017-Nov-15 11:28N 36°53' E 030°42'0 0.0
2017-Nov-15 10:58N 36°53' E 030°42'0 0.0
2017-Nov-15 10:28N 36°53' E 030°42'0 0.0
2017-Nov-15 09:58N 36°53' E 030°42'0 0.0
2017-Nov-15 09:28N 36°53' E 030°42'0 0.0
2017-Nov-15 08:49N 36°53' E 030°42'0 0.0
2017-Nov-15 08:28N 36°53' E 030°42'0 0.0
2017-Nov-15 07:55N 36°53' E 030°42'0 0.0
2017-Nov-15 07:25N 36°53' E 030°42'0 0.0
2017-Nov-15 06:55N 36°53' E 030°42'0 0.0
2017-Nov-15 06:25N 36°53' E 030°42'0 0.0
2017-Nov-15 05:55N 36°53' E 030°42'0 0.0
2017-Nov-14 16:55N 36°53' E 030°42'0 0.0
2017-Nov-14 16:25N 36°53' E 030°42'0 0.0
2017-Nov-14 15:58N 36°53' E 030°42'0 0.0
2017-Nov-14 15:19N 36°53' E 030°42'0 0.0
2017-Nov-14 14:49N 36°53' E 030°42'0 0.0
2017-Nov-14 14:28N 36°53' E 030°42'0 0.0
2017-Nov-14 13:58N 36°53' E 030°42'0 0.0
2017-Nov-14 13:25N 36°53' E 030°42'0 0.0
2017-Nov-14 12:55N 36°53' E 030°42'0 0.0
2017-Nov-14 11:40N 36°53' E 030°42'1 0.0
2017-Nov-12 12:46N 36°53' E 030°42'2 6.0
2017-Nov-12 12:28N 36°51' E 030°44'1 1.5
2017-Nov-12 11:41N 36°51' E 030°45'1 5.8
2017-Nov-12 11:28N 36°51' E 030°44'1 0.1
2017-Nov-11 13:50N 36°52' E 030°43'3 3.4
2017-Nov-11 12:54N 36°51' E 030°46'2 5.1
2017-Nov-11 12:30N 36°52' E 030°44'2 2.3
2017-Nov-11 11:40N 36°53' E 030°42'0 0.0
2017-Nov-11 11:28N 36°53' E 030°42'0 0.0
2017-Nov-11 10:52N 36°53' E 030°42'0 0.0
2017-Nov-11 10:10N 36°53' E 030°42'0 0.0
2017-Nov-11 09:46N 36°53' E 030°42'0 0.0
2017-Nov-11 09:19N 36°53' E 030°42'0 0.0
2017-Nov-11 08:52N 36°53' E 030°42'0 0.0
2017-Nov-11 08:16N 36°53' E 030°42'0 0.0
2017-Nov-11 07:55N 36°53' E 030°42'0 0.0
2017-Nov-11 07:28N 36°53' E 030°42'0 0.0
2017-Nov-11 06:52N 36°53' E 030°42'0 0.0
2017-Nov-11 06:25N 36°53' E 030°42'0 0.0
2017-Nov-11 05:52N 36°53' E 030°42'0 0.0
2017-Nov-11 04:04N 36°53' E 030°42'0 0.0
2017-Nov-11 03:58N 36°53' E 030°42'0 0.0
2017-Nov-11 03:28N 36°53' E 030°42'0 0.0
2017-Nov-11 02:52N 36°53' E 030°42'0 0.0
2017-Nov-11 02:28N 36°53' E 030°42'0 0.0
2017-Nov-11 01:58N 36°53' E 030°42'0 0.0
2017-Nov-11 01:16N 36°53' E 030°42'0 0.0
2017-Nov-11 00:58N 36°53' E 030°42'0 0.0
2017-Nov-11 00:28N 36°53' E 030°42'0 0.0
2017-Nov-10 23:52N 36°53' E 030°42'0 0.0
2017-Nov-10 23:28N 36°53' E 030°42'0 0.0
2017-Nov-10 22:58N 36°53' E 030°42'0 0.0
2017-Nov-10 22:22N 36°53' E 030°42'0 0.0
2017-Nov-10 21:58N 36°53' E 030°42'0 0.0
2017-Nov-10 18:16N 36°53' E 030°42'0 0.0
2017-Nov-10 17:55N 36°53' E 030°42'0 0.0
2017-Nov-10 17:22N 36°53' E 030°42'0 0.0
2017-Nov-10 16:58N 36°53' E 030°42'0 0.0
2017-Nov-10 16:28N 36°53' E 030°42'0 0.0
2017-Nov-10 15:28N 36°53' E 030°42'0 0.0
2017-Nov-10 14:52N 36°53' E 030°42'0 0.0
2017-Nov-10 14:25N 36°53' E 030°42'0 0.0
2017-Nov-10 13:34N 36°53' E 030°42'0 3.0
2017-Nov-10 13:27N 36°53' E 030°42'0 0.2
2017-Nov-10 13:00N 36°53' E 030°42'0 0.5
2017-Nov-10 12:23N 36°53' E 030°42'0 0.0
2017-Nov-10 11:59N 36°53' E 030°42'0 0.0
2017-Nov-10 11:29N 36°53' E 030°42'0 0.0
2017-Nov-10 10:56N 36°53' E 030°42'0 0.0
2017-Nov-10 10:23N 36°53' E 030°42'0 0.0
2017-Nov-10 09:59N 36°53' E 030°42'0 0.0
2017-Nov-10 09:29N 36°53' E 030°42'0 0.0
2017-Nov-10 09:00N 36°53' E 030°42'0 0.0
2017-Nov-10 08:29N 36°53' E 030°42'0 0.0
2017-Nov-10 07:53N 36°53' E 030°42'0 0.0
2017-Nov-10 07:30N 36°53' E 030°42'0 0.0
2017-Nov-10 06:59N 36°53' E 030°42'0 0.0
2017-Nov-10 06:23N 36°53' E 030°42'0 0.0
2017-Nov-10 05:59N 36°53' E 030°42'0 0.0
2017-Nov-10 05:18N 36°53' E 030°42'0 0.0
2017-Nov-10 04:48N 36°53' E 030°42'0 0.0
2017-Nov-10 04:30N 36°53' E 030°42'0 0.0
2017-Nov-10 04:00N 36°53' E 030°42'0 0.0
2017-Nov-10 03:29N 36°53' E 030°42'0 0.0
2017-Nov-10 03:00N 36°53' E 030°42'0 0.0
2017-Nov-10 02:30N 36°53' E 030°42'0 0.0
2017-Nov-10 02:00N 36°53' E 030°42'0 0.0
2017-Nov-10 01:30N 36°53' E 030°42'0 0.0
2017-Nov-10 00:54N 36°53' E 030°42'0 0.0
2017-Nov-10 00:30N 36°53' E 030°42'0 0.0
2017-Nov-10 00:00N 36°53' E 030°42'0 0.0
2017-Nov-09 23:27N 36°53' E 030°42'0 0.0
2017-Nov-09 21:18N 36°53' E 030°42'0 0.0
2017-Nov-09 21:00N 36°53' E 030°42'0 0.0
2017-Nov-09 20:30N 36°53' E 030°42'0 0.1
2017-Nov-09 19:59N 36°53' E 030°42'1 2.5
2017-Nov-09 19:30N 36°52' E 030°42'1 1.6
2017-Nov-09 19:00N 36°53' E 030°42'0 0.8
2017-Nov-09 18:29N 36°53' E 030°42'0 0.0
2017-Nov-09 17:38N 36°53' E 030°42'0 0.0
2017-Nov-09 17:14N 36°53' E 030°42'0 0.0
2017-Nov-09 16:56N 36°53' E 030°42'0 0.0
2017-Nov-09 16:26N 36°53' E 030°42'0 0.0
2017-Nov-09 15:56N 36°53' E 030°42'0 0.0
2017-Nov-09 15:26N 36°53' E 030°42'0 0.0
2017-Nov-09 14:56N 36°53' E 030°42'0 0.0
2017-Nov-09 14:29N 36°53' E 030°42'0 0.0
2017-Nov-09 13:59N 36°53' E 030°42'0 0.0
2017-Nov-09 12:27N 36°53' E 030°42'3 5.7
2017-Nov-09 12:00N 36°51' E 030°44'1 1.6
2017-Nov-09 11:18N 36°51' E 030°46'2 5.7
2017-Nov-09 11:00N 36°52' E 030°44'2 3.6
2017-Nov-09 10:28N 36°53' E 030°42'0 0.0
2017-Nov-09 09:58N 36°53' E 030°42'0 0.0
2017-Nov-09 09:28N 36°53' E 030°42'0 0.0
2017-Nov-09 08:58N 36°53' E 030°42'0 0.0
2017-Nov-09 08:28N 36°53' E 030°42'0 0.0
2017-Nov-09 07:58N 36°53' E 030°42'0 0.0
2017-Nov-09 07:28N 36°53' E 030°42'0 0.0
2017-Nov-09 06:58N 36°53' E 030°42'0 0.0
2017-Nov-09 06:28N 36°53' E 030°42'0 0.0
2017-Nov-09 05:55N 36°53' E 030°42'0 0.0
2017-Nov-09 05:22N 36°53' E 030°42'0 0.0
2017-Nov-09 04:58N 36°53' E 030°42'0 0.0
2017-Nov-09 04:28N 36°53' E 030°42'  
Track history (hours):
 
Tides and Currents Weather Stations Pressure Air Temp Water Temp Dewpoint Dewpoint Depression Visibility Wind Speed Wind Dir Waves Ship Positions

Erkan-2

Last reported at 2017-Nov-19 04:28 UTC. Time now 2017-Nov-19 05:00 UTC.
Position N 36°53' E 030°42'.

Length 19 m.

Type: Passenger vessel. MMSI: 271041084.

Date/timePositionNaut miles runAvg speedWind from/ knotsBaromVisibWave heightAir tempDewpointWater temp
2017-Nov-19 04:28N 36°53' E 030°42'0 0.0
2017-Nov-19 03:55N 36°53' E 030°42'0 0.0
2017-Nov-19 03:25N 36°53' E 030°42'0 0.0
2017-Nov-19 02:37N 36°53' E 030°42'0 0.0
2017-Nov-19 02:19N 36°53' E 030°42'0 0.0
2017-Nov-19 01:49N 36°53' E 030°42'0 0.0
2017-Nov-19 01:25N 36°53' E 030°42'0 0.0
2017-Nov-19 00:43N 36°53' E 030°42'0 0.0
2017-Nov-19 00:25N 36°53' E 030°42'0 0.0
2017-Nov-18 23:55N 36°53' E 030°42'0 0.0
2017-Nov-18 23:25N 36°53' E 030°42'0 0.0
2017-Nov-18 22:43N 36°53' E 030°42'0 0.0
2017-Nov-18 22:25N 36°53' E 030°42'0 0.0
2017-Nov-18 21:52N 36°53' E 030°42'0 0.0
2017-Nov-18 21:19N 36°53' E 030°42'0 0.0
2017-Nov-18 19:31N 36°53' E 030°42'0 0.0
2017-Nov-18 19:28N 36°53' E 030°42'0 0.0
2017-Nov-18 16:13N 36°53' E 030°42'0 0.0
2017-Nov-18 15:58N 36°53' E 030°42'0 0.0
2017-Nov-18 15:28N 36°53' E 030°42'0 0.0
2017-Nov-18 14:58N 36°53' E 030°42'0 0.3
2017-Nov-18 14:30N 36°53' E 030°42'3 6.3
2017-Nov-18 14:00N 36°51' E 030°45'1 1.3
2017-Nov-18 13:29N 36°51' E 030°46'3 5.6
2017-Nov-18 13:00N 36°52' E 030°43'1 1.7
2017-Nov-18 12:21N 36°53' E 030°42'0 0.0
2017-Nov-18 11:57N 36°53' E 030°42'0 0.0
2017-Nov-18 11:24N 36°53' E 030°42'1 2.3
2017-Nov-18 11:00N 36°52' E 030°42'1 1.9
2017-Nov-18 10:30N 36°53' E 030°42'0 0.0
2017-Nov-18 10:00N 36°53' E 030°42'0 0.0
2017-Nov-18 09:24N 36°53' E 030°42'0 0.0
2017-Nov-18 09:00N 36°53' E 030°42'0 0.0
2017-Nov-18 08:30N 36°53' E 030°42'0 0.0
2017-Nov-18 08:00N 36°53' E 030°42'0 0.0
2017-Nov-18 07:30N 36°53' E 030°42'0 0.0
2017-Nov-18 07:00N 36°53' E 030°42'0 0.0
2017-Nov-18 06:30N 36°53' E 030°42'0 0.0
2017-Nov-18 06:00N 36°53' E 030°42'0 0.0
2017-Nov-18 05:30N 36°53' E 030°42'0 0.0
2017-Nov-18 05:00N 36°53' E 030°42'0 0.0
2017-Nov-18 04:30N 36°53' E 030°42'0 0.0
2017-Nov-18 04:00N 36°53' E 030°42'0 0.0
2017-Nov-18 03:30N 36°53' E 030°42'0 0.0
2017-Nov-18 03:00N 36°53' E 030°42'0 0.0
2017-Nov-18 02:30N 36°53' E 030°42'0 0.0
2017-Nov-18 02:00N 36°53' E 030°42'0 0.0
2017-Nov-18 01:30N 36°53' E 030°42'0 0.0
2017-Nov-18 01:00N 36°53' E 030°42'0 0.0
2017-Nov-18 00:30N 36°53' E 030°42'0 0.0
2017-Nov-18 00:00N 36°53' E 030°42'0 0.0
2017-Nov-17 23:30N 36°53' E 030°42'0 0.0
2017-Nov-17 23:01N 36°53' E 030°42'0 0.0
2017-Nov-17 22:27N 36°53' E 030°42'0 0.0
2017-Nov-17 22:00N 36°53' E 030°42'0 0.0
2017-Nov-17 21:31N 36°53' E 030°42'0 0.0
2017-Nov-17 21:01N 36°53' E 030°42'0 0.0
2017-Nov-17 20:30N 36°53' E 030°42'0 0.0
2017-Nov-17 20:00N 36°53' E 030°42'0 0.0
2017-Nov-17 19:25N 36°53' E 030°42'0 0.0
2017-Nov-17 18:55N 36°53' E 030°42'0 0.0
2017-Nov-17 18:31N 36°53' E 030°42'0 0.0
2017-Nov-17 17:58N 36°53' E 030°42'0 0.0
2017-Nov-17 17:28N 36°53' E 030°42'0 0.0
2017-Nov-17 16:58N 36°53' E 030°42'0 0.0
2017-Nov-17 16:25N 36°53' E 030°42'0 0.0
2017-Nov-17 15:58N 36°53' E 030°42'0 0.0
2017-Nov-17 15:25N 36°53' E 030°42'0 0.0
2017-Nov-17 14:58N 36°53' E 030°42'0 0.0
2017-Nov-17 14:28N 36°53' E 030°42'0 0.0
2017-Nov-17 13:30N 36°53' E 030°42'3 5.7
2017-Nov-17 13:00N 36°51' E 030°45'1 2.4
2017-Nov-17 12:26N 36°51' E 030°46'2 5.8
2017-Nov-17 12:00N 36°52' E 030°43'2 3.1
2017-Nov-17 11:28N 36°53' E 030°42'0 0.0
2017-Nov-17 10:58N 36°53' E 030°42'0 0.0
2017-Nov-17 10:28N 36°53' E 030°42'0 0.0
2017-Nov-17 09:58N 36°53' E 030°42'0 0.0
2017-Nov-17 09:28N 36°53' E 030°42'0 0.0
2017-Nov-17 08:52N 36°53' E 030°42'0 0.0
2017-Nov-17 08:22N 36°53' E 030°42'0 0.0
2017-Nov-17 07:58N 36°53' E 030°42'0 0.0
2017-Nov-17 07:25N 36°53' E 030°42'0 0.0
2017-Nov-17 06:58N 36°53' E 030°42'0 0.0
2017-Nov-17 06:25N 36°53' E 030°42'0 0.0
2017-Nov-17 05:58N 36°53' E 030°42'0 0.0
2017-Nov-17 05:28N 36°53' E 030°42'0 0.0
2017-Nov-17 04:58N 36°53' E 030°42'0 0.0
2017-Nov-17 04:28N 36°53' E 030°42'0 0.0
2017-Nov-17 03:58N 36°53' E 030°42'0 0.0
2017-Nov-17 03:28N 36°53' E 030°42'0 0.0
2017-Nov-17 02:58N 36°53' E 030°42'0 0.0
2017-Nov-17 02:28N 36°53' E 030°42'0 0.0
2017-Nov-17 01:55N 36°53' E 030°42'0 0.0
2017-Nov-17 01:28N 36°53' E 030°42'0 0.0
2017-Nov-17 00:58N 36°53' E 030°42'0 0.0
2017-Nov-17 00:28N 36°53' E 030°42'0 0.0
2017-Nov-16 23:55N 36°53' E 030°42'0 0.0
2017-Nov-16 23:28N 36°53' E 030°42'0 0.0
2017-Nov-16 22:55N 36°53' E 030°42'0 0.0
2017-Nov-16 22:28N 36°53' E 030°42'0 0.0
2017-Nov-16 21:58N 36°53' E 030°42'0 0.0
2017-Nov-16 21:28N 36°53' E 030°42'0 0.0
2017-Nov-16 20:58N 36°53' E 030°42'0 0.0
2017-Nov-16 20:28N 36°53' E 030°42'0 0.0
2017-Nov-16 19:58N 36°53' E 030°42'0 0.0
2017-Nov-16 19:25N 36°53' E 030°42'0 0.0
2017-Nov-16 18:58N 36°53' E 030°42'0 0.0
2017-Nov-16 18:25N 36°53' E 030°42'0 0.0
2017-Nov-16 17:58N 36°53' E 030°42'0 0.0
2017-Nov-16 17:25N 36°53' E 030°42'0 0.0
2017-Nov-16 16:58N 36°53' E 030°42'0 0.0
2017-Nov-16 16:25N 36°53' E 030°42'0 0.0
2017-Nov-16 15:58N 36°53' E 030°42'1 1.9
2017-Nov-16 15:26N 36°52' E 030°43'0 0.1
2017-Nov-16 14:59N 36°52' E 030°43'0 0.1
2017-Nov-16 14:29N 36°52' E 030°43'0 0.1
2017-Nov-16 13:59N 36°52' E 030°43'1 1.9
2017-Nov-16 13:29N 36°53' E 030°42'3 6.3
2017-Nov-16 13:00N 36°51' E 030°45'1 1.2
2017-Nov-16 12:26N 36°51' E 030°46'3 6.0
2017-Nov-16 12:00N 36°52' E 030°43'1 2.2
2017-Nov-16 11:28N 36°53' E 030°42'0 0.0
2017-Nov-16 10:55N 36°53' E 030°42'0 0.0
2017-Nov-16 10:28N 36°53' E 030°42'0 0.0
2017-Nov-16 09:58N 36°53' E 030°42'0 0.0
2017-Nov-16 09:25N 36°53' E 030°42'0 0.0
2017-Nov-16 08:25N 36°53' E 030°42'0 0.0
2017-Nov-16 07:58N 36°53' E 030°42'0 0.0
2017-Nov-16 07:28N 36°53' E 030°42'0 0.0
2017-Nov-16 06:58N 36°53' E 030°42'0 0.0
2017-Nov-16 06:28N 36°53' E 030°42'0 0.0
2017-Nov-16 05:55N 36°53' E 030°42'0 0.0
2017-Nov-16 04:34N 36°53' E 030°42'0 0.0
2017-Nov-16 04:25N 36°53' E 030°42'0 0.0
2017-Nov-16 03:55N 36°53' E 030°42'0 0.0
2017-Nov-16 03:28N 36°53' E 030°42'0 0.0
2017-Nov-16 02:55N 36°53' E 030°42'0 0.0
2017-Nov-16 02:25N 36°53' E 030°42'0 0.0
2017-Nov-16 01:55N 36°53' E 030°42'0 0.0
2017-Nov-16 01:19N 36°53' E 030°42'0 0.0
2017-Nov-16 00:55N 36°53' E 030°42'0 0.0
2017-Nov-16 00:25N 36°53' E 030°42'0 0.0
2017-Nov-15 23:55N 36°53' E 030°42'0 0.0
2017-Nov-15 23:19N 36°53' E 030°42'0 0.0
2017-Nov-15 22:55N 36°53' E 030°42'0 0.0
2017-Nov-15 22:22N 36°53' E 030°42'0 0.0
2017-Nov-15 21:43N 36°53' E 030°42'0 0.0
2017-Nov-15 21:25N 36°53' E 030°42'0 0.0
2017-Nov-15 20:49N 36°53' E 030°42'0 0.0
2017-Nov-15 20:25N 36°53' E 030°42'0 0.0
2017-Nov-15 17:49N 36°53' E 030°42'0 0.0
2017-Nov-15 17:25N 36°53' E 030°42'0 0.0
2017-Nov-15 16:55N 36°53' E 030°42'0 0.0
2017-Nov-15 16:25N 36°53' E 030°42'0 0.0
2017-Nov-15 15:58N 36°53' E 030°42'0 0.0
2017-Nov-15 15:13N 36°53' E 030°42'0 0.0
2017-Nov-15 14:58N 36°53' E 030°42'0 0.0
2017-Nov-15 14:25N 36°53' E 030°42'0 0.0
2017-Nov-15 13:58N 36°53' E 030°42'0 0.0
2017-Nov-15 13:25N 36°53' E 030°42'0 0.0
2017-Nov-15 12:55N 36°53' E 030°42'0 0.0
2017-Nov-15 12:25N 36°53' E 030°42'0 0.0
2017-Nov-15 11:58N 36°53' E 030°42'0 0.0
2017-Nov-15 11:28N 36°53' E 030°42'0 0.0
2017-Nov-15 10:58N 36°53' E 030°42'0 0.0
2017-Nov-15 10:28N 36°53' E 030°42'0 0.0
2017-Nov-15 09:58N 36°53' E 030°42'0 0.0
2017-Nov-15 09:28N 36°53' E 030°42'0 0.0
2017-Nov-15 08:49N 36°53' E 030°42'0 0.0
2017-Nov-15 08:28N 36°53' E 030°42'0 0.0
2017-Nov-15 07:55N 36°53' E 030°42'0 0.0
2017-Nov-15 07:25N 36°53' E 030°42'0 0.0
2017-Nov-15 06:55N 36°53' E 030°42'0 0.0
2017-Nov-15 06:25N 36°53' E 030°42'0 0.0
2017-Nov-15 05:55N 36°53' E 030°42'0 0.0
2017-Nov-14 16:55N 36°53' E 030°42'0 0.0
2017-Nov-14 16:25N 36°53' E 030°42'0 0.0
2017-Nov-14 15:58N 36°53' E 030°42'0 0.0
2017-Nov-14 15:19N 36°53' E 030°42'0 0.0
2017-Nov-14 14:49N 36°53' E 030°42'0 0.0
2017-Nov-14 14:28N 36°53' E 030°42'0 0.0
2017-Nov-14 13:58N 36°53' E 030°42'0 0.0
2017-Nov-14 13:25N 36°53' E 030°42'0 0.0
2017-Nov-14 12:55N 36°53' E 030°42'0 0.0
2017-Nov-14 11:40N 36°53' E 030°42'1 0.0
2017-Nov-12 12:46N 36°53' E 030°42'2 6.0
2017-Nov-12 12:28N 36°51' E 030°44'1 1.5
2017-Nov-12 11:41N 36°51' E 030°45'1 5.8
2017-Nov-12 11:28N 36°51' E 030°44'1 0.1
2017-Nov-11 13:50N 36°52' E 030°43'3 3.4
2017-Nov-11 12:54N 36°51' E 030°46'2 5.1
2017-Nov-11 12:30N 36°52' E 030°44'2 2.3
2017-Nov-11 11:40N 36°53' E 030°42'0 0.0
2017-Nov-11 11:28N 36°53' E 030°42'0 0.0
2017-Nov-11 10:52N 36°53' E 030°42'0 0.0
2017-Nov-11 10:10N 36°53' E 030°42'0 0.0
2017-Nov-11 09:46N 36°53' E 030°42'0 0.0
2017-Nov-11 09:19N 36°53' E 030°42'0 0.0
2017-Nov-11 08:52N 36°53' E 030°42'0 0.0
2017-Nov-11 08:16N 36°53' E 030°42'0 0.0
2017-Nov-11 07:55N 36°53' E 030°42'0 0.0
2017-Nov-11 07:28N 36°53' E 030°42'0 0.0
2017-Nov-11 06:52N 36°53' E 030°42'0 0.0
2017-Nov-11 06:25N 36°53' E 030°42'0 0.0
2017-Nov-11 05:52N 36°53' E 030°42'0 0.0
2017-Nov-11 04:04N 36°53' E 030°42'0 0.0
2017-Nov-11 03:58N 36°53' E 030°42'0 0.0
2017-Nov-11 03:28N 36°53' E 030°42'0 0.0
2017-Nov-11 02:52N 36°53' E 030°42'0 0.0
2017-Nov-11 02:28N 36°53' E 030°42'0 0.0
2017-Nov-11 01:58N 36°53' E 030°42'0 0.0
2017-Nov-11 01:16N 36°53' E 030°42'0 0.0
2017-Nov-11 00:58N 36°53' E 030°42'0 0.0
2017-Nov-11 00:28N 36°53' E 030°42'0 0.0
2017-Nov-10 23:52N 36°53' E 030°42'0 0.0
2017-Nov-10 23:28N 36°53' E 030°42'0 0.0
2017-Nov-10 22:58N 36°53' E 030°42'0 0.0
2017-Nov-10 22:22N 36°53' E 030°42'0 0.0
2017-Nov-10 21:58N 36°53' E 030°42'0 0.0
2017-Nov-10 18:16N 36°53' E 030°42'0 0.0
2017-Nov-10 17:55N 36°53' E 030°42'0 0.0
2017-Nov-10 17:22N 36°53' E 030°42'0 0.0
2017-Nov-10 16:58N 36°53' E 030°42'0 0.0
2017-Nov-10 16:28N 36°53' E 030°42'0 0.0
2017-Nov-10 15:28N 36°53' E 030°42'0 0.0
2017-Nov-10 14:52N 36°53' E 030°42'0 0.0
2017-Nov-10 14:25N 36°53' E 030°42'0 0.0
2017-Nov-10 13:34N 36°53' E 030°42'0 3.0
2017-Nov-10 13:27N 36°53' E 030°42'0 0.2
2017-Nov-10 13:00N 36°53' E 030°42'0 0.5
2017-Nov-10 12:23N 36°53' E 030°42'0 0.0
2017-Nov-10 11:59N 36°53' E 030°42'0 0.0
2017-Nov-10 11:29N 36°53' E 030°42'0 0.0
2017-Nov-10 10:56N 36°53' E 030°42'0 0.0
2017-Nov-10 10:23N 36°53' E 030°42'0 0.0
2017-Nov-10 09:59N 36°53' E 030°42'0 0.0
2017-Nov-10 09:29N 36°53' E 030°42'0 0.0
2017-Nov-10 09:00N 36°53' E 030°42'0 0.0
2017-Nov-10 08:29N 36°53' E 030°42'0 0.0
2017-Nov-10 07:53N 36°53' E 030°42'0 0.0
2017-Nov-10 07:30N 36°53' E 030°42'0 0.0
2017-Nov-10 06:59N 36°53' E 030°42'0 0.0
2017-Nov-10 06:23N 36°53' E 030°42'0 0.0
2017-Nov-10 05:59N 36°53' E 030°42'0 0.0
2017-Nov-10 05:18N 36°53' E 030°42'0 0.0
2017-Nov-10 04:48N 36°53' E 030°42'0 0.0
2017-Nov-10 04:30N 36°53' E 030°42'0 0.0
2017-Nov-10 04:00N 36°53' E 030°42'0 0.0
2017-Nov-10 03:29N 36°53' E 030°42'0 0.0
2017-Nov-10 03:00N 36°53' E 030°42'0 0.0
2017-Nov-10 02:30N 36°53' E 030°42'0 0.0
2017-Nov-10 02:00N 36°53' E 030°42'0 0.0
2017-Nov-10 01:30N 36°53' E 030°42'0 0.0
2017-Nov-10 00:54N 36°53' E 030°42'0 0.0
2017-Nov-10 00:30N 36°53' E 030°42'0 0.0
2017-Nov-10 00:00N 36°53' E 030°42'0 0.0
2017-Nov-09 23:27N 36°53' E 030°42'0 0.0
2017-Nov-09 21:18N 36°53' E 030°42'0 0.0
2017-Nov-09 21:00N 36°53' E 030°42'0 0.0
2017-Nov-09 20:30N 36°53' E 030°42'0 0.1
2017-Nov-09 19:59N 36°53' E 030°42'1 2.5
2017-Nov-09 19:30N 36°52' E 030°42'1 1.6
2017-Nov-09 19:00N 36°53' E 030°42'0 0.8
2017-Nov-09 18:29N 36°53' E 030°42'0 0.0
2017-Nov-09 17:38N 36°53' E 030°42'0 0.0
2017-Nov-09 17:14N 36°53' E 030°42'0 0.0
2017-Nov-09 16:56N 36°53' E 030°42'0 0.0
2017-Nov-09 16:26N 36°53' E 030°42'0 0.0
2017-Nov-09 15:56N 36°53' E 030°42'0 0.0
2017-Nov-09 15:26N 36°53' E 030°42'0 0.0
2017-Nov-09 14:56N 36°53' E 030°42'0 0.0
2017-Nov-09 14:29N 36°53' E 030°42'0 0.0
2017-Nov-09 13:59N 36°53' E 030°42'0 0.0
2017-Nov-09 12:27N 36°53' E 030°42'3 5.7
2017-Nov-09 12:00N 36°51' E 030°44'1 1.6
2017-Nov-09 11:18N 36°51' E 030°46'2 5.7
2017-Nov-09 11:00N 36°52' E 030°44'2 3.6
2017-Nov-09 10:28N 36°53' E 030°42'0 0.0
2017-Nov-09 09:58N 36°53' E 030°42'0 0.0
2017-Nov-09 09:28N 36°53' E 030°42'0 0.0
2017-Nov-09 08:58N 36°53' E 030°42'0 0.0
2017-Nov-09 08:28N 36°53' E 030°42'0 0.0
2017-Nov-09 07:58N 36°53' E 030°42'0 0.0
2017-Nov-09 07:28N 36°53' E 030°42'0 0.0
2017-Nov-09 06:58N 36°53' E 030°42'0 0.0
2017-Nov-09 06:28N 36°53' E 030°42'0 0.0
2017-Nov-09 05:55N 36°53' E 030°42'0 0.0
2017-Nov-09 05:22N 36°53' E 030°42'0 0.0
2017-Nov-09 04:58N 36°53' E 030°42'0 0.0
2017-Nov-09 04:28N 36°53' E 030°42'  

Dump ship's entire track history